sensor_id;sensor_type;location;lat;lon;timestamp;P1;durP1;ratioP1;P2;durP2;ratioP2
58756;SDS011;44527;47.460;19.016;2022-12-29T00:01:08;31.37;;;10.05;;
58756;SDS011;44527;47.460;19.016;2022-12-29T00:04:11;23.17;;;10.18;;
58756;SDS011;44527;47.460;19.016;2022-12-29T00:07:16;30.52;;;11.30;;
58756;SDS011;44527;47.460;19.016;2022-12-29T00:10:19;20.70;;;10.55;;
58756;SDS011;44527;47.460;19.016;2022-12-29T00:13:21;22.00;;;10.13;;
58756;SDS011;44527;47.460;19.016;2022-12-29T00:16:43;20.50;;;10.70;;
58756;SDS011;44527;47.460;19.016;2022-12-29T00:19:46;22.27;;;10.57;;
58756;SDS011;44527;47.460;19.016;2022-12-29T00:23:08;24.90;;;11.00;;
58756;SDS011;44527;47.460;19.016;2022-12-29T00:26:29;23.92;;;10.90;;
58756;SDS011;44527;47.460;19.016;2022-12-29T00:29:50;23.73;;;10.35;;
58756;SDS011;44527;47.460;19.016;2022-12-29T00:33:15;22.40;;;8.95;;
58756;SDS011;44527;47.460;19.016;2022-12-29T00:36:39;27.23;;;10.80;;
58756;SDS011;44527;47.460;19.016;2022-12-29T00:39:44;26.95;;;10.45;;
58756;SDS011;44527;47.460;19.016;2022-12-29T00:43:05;22.17;;;9.98;;
58756;SDS011;44527;47.460;19.016;2022-12-29T00:46:26;21.50;;;10.40;;
58756;SDS011;44527;47.460;19.016;2022-12-29T00:49:30;26.55;;;12.07;;
58756;SDS011;44527;47.460;19.016;2022-12-29T00:52:32;31.90;;;11.55;;
58756;SDS011;44527;47.460;19.016;2022-12-29T00:55:38;25.42;;;11.93;;
58756;SDS011;44527;47.460;19.016;2022-12-29T00:58:41;22.37;;;11.18;;
58756;SDS011;44527;47.460;19.016;2022-12-29T01:01:43;27.08;;;11.55;;
58756;SDS011;44527;47.460;19.016;2022-12-29T01:04:46;24.63;;;10.68;;
58756;SDS011;44527;47.460;19.016;2022-12-29T01:07:49;23.77;;;10.27;;
58756;SDS011;44527;47.460;19.016;2022-12-29T01:10:58;26.12;;;10.32;;
58756;SDS011;44527;47.460;19.016;2022-12-29T01:14:02;24.27;;;10.73;;
58756;SDS011;44527;47.460;19.016;2022-12-29T01:17:05;20.98;;;10.27;;
58756;SDS011;44527;47.460;19.016;2022-12-29T01:20:08;25.08;;;11.27;;
58756;SDS011;44527;47.460;19.016;2022-12-29T01:23:12;23.30;;;10.23;;
58756;SDS011;44527;47.460;19.016;2022-12-29T01:26:15;28.00;;;11.50;;
58756;SDS011;44527;47.460;19.016;2022-12-29T01:29:19;23.90;;;11.18;;
58756;SDS011;44527;47.460;19.016;2022-12-29T01:32:21;22.73;;;10.65;;
58756;SDS011;44527;47.460;19.016;2022-12-29T01:35:23;25.00;;;11.12;;
58756;SDS011;44527;47.460;19.016;2022-12-29T01:38:26;20.95;;;10.25;;
58756;SDS011;44527;47.460;19.016;2022-12-29T01:41:28;20.67;;;10.25;;
58756;SDS011;44527;47.460;19.016;2022-12-29T01:47:55;21.33;;;11.07;;
58756;SDS011;44527;47.460;19.016;2022-12-29T01:51:01;21.30;;;10.50;;
58756;SDS011;44527;47.460;19.016;2022-12-29T01:54:04;25.58;;;10.80;;
58756;SDS011;44527;47.460;19.016;2022-12-29T01:57:16;21.60;;;10.95;;
58756;SDS011;44527;47.460;19.016;2022-12-29T02:00:23;21.50;;;10.98;;
58756;SDS011;44527;47.460;19.016;2022-12-29T02:03:26;19.80;;;10.35;;
58756;SDS011;44527;47.460;19.016;2022-12-29T02:06:38;17.40;;;10.13;;
58756;SDS011;44527;47.460;19.016;2022-12-29T02:09:49;27.37;;;9.95;;
58756;SDS011;44527;47.460;19.016;2022-12-29T02:12:53;17.42;;;8.90;;
58756;SDS011;44527;47.460;19.016;2022-12-29T02:32:44;19.33;;;9.75;;
58756;SDS011;44527;47.460;19.016;2022-12-29T02:43:27;24.15;;;10.35;;
58756;SDS011;44527;47.460;19.016;2022-12-29T02:46:36;26.85;;;9.82;;
58756;SDS011;44527;47.460;19.016;2022-12-29T02:52:59;24.33;;;9.93;;
58756;SDS011;44527;47.460;19.016;2022-12-29T02:56:04;25.55;;;9.25;;
58756;SDS011;44527;47.460;19.016;2022-12-29T02:59:06;25.73;;;11.45;;
58756;SDS011;44527;47.460;19.016;2022-12-29T03:02:14;20.77;;;10.20;;
58756;SDS011;44527;47.460;19.016;2022-12-29T03:16:04;26.20;;;11.20;;
58756;SDS011;44527;47.460;19.016;2022-12-29T03:19:17;24.83;;;11.90;;
58756;SDS011;44527;47.460;19.016;2022-12-29T03:22:25;21.15;;;9.77;;
58756;SDS011;44527;47.460;19.016;2022-12-29T03:25:35;30.37;;;10.30;;
58756;SDS011;44527;47.460;19.016;2022-12-29T03:28:46;20.62;;;9.23;;
58756;SDS011;44527;47.460;19.016;2022-12-29T03:31:53;21.87;;;10.05;;
58756;SDS011;44527;47.460;19.016;2022-12-29T03:34:57;17.42;;;8.25;;
58756;SDS011;44527;47.460;19.016;2022-12-29T03:38:21;23.95;;;10.18;;
58756;SDS011;44527;47.460;19.016;2022-12-29T03:41:30;20.42;;;10.85;;
58756;SDS011;44527;47.460;19.016;2022-12-29T03:44:36;28.33;;;10.23;;
58756;SDS011;44527;47.460;19.016;2022-12-29T03:47:42;23.30;;;9.93;;
58756;SDS011;44527;47.460;19.016;2022-12-29T03:50:45;20.00;;;9.85;;
58756;SDS011;44527;47.460;19.016;2022-12-29T03:53:48;17.83;;;9.93;;
58756;SDS011;44527;47.460;19.016;2022-12-29T03:56:51;22.17;;;8.43;;
58756;SDS011;44527;47.460;19.016;2022-12-29T03:59:54;19.90;;;9.73;;
58756;SDS011;44527;47.460;19.016;2022-12-29T04:02:56;18.27;;;9.60;;
58756;SDS011;44527;47.460;19.016;2022-12-29T04:05:59;22.70;;;8.93;;
58756;SDS011;44527;47.460;19.016;2022-12-29T04:09:02;23.85;;;10.52;;
58756;SDS011;44527;47.460;19.016;2022-12-29T04:12:06;20.73;;;9.65;;
58756;SDS011;44527;47.460;19.016;2022-12-29T04:15:09;14.77;;;8.95;;
58756;SDS011;44527;47.460;19.016;2022-12-29T04:18:12;21.40;;;9.63;;
58756;SDS011;44527;47.460;19.016;2022-12-29T04:21:14;21.50;;;9.43;;
58756;SDS011;44527;47.460;19.016;2022-12-29T04:24:19;22.35;;;10.18;;
58756;SDS011;44527;47.460;19.016;2022-12-29T04:27:22;21.37;;;9.07;;
58756;SDS011;44527;47.460;19.016;2022-12-29T04:30:26;20.48;;;9.68;;
58756;SDS011;44527;47.460;19.016;2022-12-29T04:33:29;20.27;;;9.55;;
58756;SDS011;44527;47.460;19.016;2022-12-29T04:36:32;24.35;;;9.95;;
58756;SDS011;44527;47.460;19.016;2022-12-29T04:39:35;19.65;;;9.30;;
58756;SDS011;44527;47.460;19.016;2022-12-29T04:42:38;21.95;;;9.90;;
58756;SDS011;44527;47.460;19.016;2022-12-29T04:45:44;22.40;;;9.80;;
58756;SDS011;44527;47.460;19.016;2022-12-29T04:48:48;24.37;;;9.77;;
58756;SDS011;44527;47.460;19.016;2022-12-29T04:51:52;25.48;;;10.57;;
58756;SDS011;44527;47.460;19.016;2022-12-29T04:54:54;25.42;;;11.35;;
58756;SDS011;44527;47.460;19.016;2022-12-29T04:57:57;27.98;;;10.65;;
58756;SDS011;44527;47.460;19.016;2022-12-29T05:01:00;30.70;;;11.20;;
58756;SDS011;44527;47.460;19.016;2022-12-29T05:04:03;30.40;;;11.00;;
58756;SDS011;44527;47.460;19.016;2022-12-29T05:07:06;30.05;;;11.60;;
58756;SDS011;44527;47.460;19.016;2022-12-29T05:10:09;35.13;;;12.80;;
58756;SDS011;44527;47.460;19.016;2022-12-29T05:13:12;28.95;;;12.48;;
58756;SDS011;44527;47.460;19.016;2022-12-29T05:16:16;23.55;;;11.27;;
58756;SDS011;44527;47.460;19.016;2022-12-29T05:19:20;21.83;;;10.30;;
58756;SDS011;44527;47.460;19.016;2022-12-29T05:22:22;23.80;;;11.02;;
58756;SDS011;44527;47.460;19.016;2022-12-29T05:25:25;22.27;;;11.43;;
58756;SDS011;44527;47.460;19.016;2022-12-29T05:28:28;23.20;;;11.35;;
58756;SDS011;44527;47.460;19.016;2022-12-29T05:31:31;23.62;;;10.95;;
58756;SDS011;44527;47.460;19.016;2022-12-29T05:34:33;22.48;;;11.55;;
58756;SDS011;44527;47.460;19.016;2022-12-29T05:37:36;23.38;;;10.45;;
58756;SDS011;44527;47.460;19.016;2022-12-29T05:40:38;24.55;;;11.18;;
58756;SDS011;44527;47.460;19.016;2022-12-29T05:43:41;22.37;;;10.23;;
58756;SDS011;44527;47.460;19.016;2022-12-29T05:46:44;26.60;;;11.20;;
58756;SDS011;44527;47.460;19.016;2022-12-29T05:49:48;26.90;;;11.07;;
58756;SDS011;44527;47.460;19.016;2022-12-29T05:52:51;25.33;;;11.73;;
58756;SDS011;44527;47.460;19.016;2022-12-29T05:55:54;24.85;;;10.82;;
58756;SDS011;44527;47.460;19.016;2022-12-29T05:58:57;20.33;;;10.90;;
58756;SDS011;44527;47.460;19.016;2022-12-29T06:02:00;33.20;;;12.32;;
58756;SDS011;44527;47.460;19.016;2022-12-29T06:05:03;25.83;;;10.95;;
58756;SDS011;44527;47.460;19.016;2022-12-29T06:08:07;27.15;;;12.20;;
58756;SDS011;44527;47.460;19.016;2022-12-29T06:11:09;32.97;;;12.45;;
58756;SDS011;44527;47.460;19.016;2022-12-29T06:14:15;27.60;;;11.18;;
58756;SDS011;44527;47.460;19.016;2022-12-29T06:17:18;27.02;;;12.65;;
58756;SDS011;44527;47.460;19.016;2022-12-29T06:20:20;24.17;;;11.70;;
58756;SDS011;44527;47.460;19.016;2022-12-29T06:23:23;28.55;;;12.52;;
58756;SDS011;44527;47.460;19.016;2022-12-29T06:26:25;19.98;;;11.55;;
58756;SDS011;44527;47.460;19.016;2022-12-29T06:29:28;26.37;;;12.80;;
58756;SDS011;44527;47.460;19.016;2022-12-29T06:32:31;21.12;;;10.57;;
58756;SDS011;44527;47.460;19.016;2022-12-29T06:35:34;29.85;;;11.35;;
58756;SDS011;44527;47.460;19.016;2022-12-29T06:38:37;31.08;;;13.23;;
58756;SDS011;44527;47.460;19.016;2022-12-29T06:41:39;23.75;;;11.32;;
58756;SDS011;44527;47.460;19.016;2022-12-29T06:44:42;27.02;;;11.77;;
58756;SDS011;44527;47.460;19.016;2022-12-29T06:47:46;25.48;;;12.25;;
58756;SDS011;44527;47.460;19.016;2022-12-29T06:50:48;25.70;;;12.25;;
58756;SDS011;44527;47.460;19.016;2022-12-29T06:53:51;29.45;;;12.50;;
58756;SDS011;44527;47.460;19.016;2022-12-29T06:56:54;24.20;;;11.63;;
58756;SDS011;44527;47.460;19.016;2022-12-29T06:59:57;22.75;;;12.15;;
58756;SDS011;44527;47.460;19.016;2022-12-29T07:02:59;31.27;;;11.98;;
58756;SDS011;44527;47.460;19.016;2022-12-29T07:06:03;30.77;;;14.07;;
58756;SDS011;44527;47.460;19.016;2022-12-29T07:09:06;30.77;;;13.23;;
58756;SDS011;44527;47.460;19.016;2022-12-29T07:12:09;30.55;;;13.85;;
58756;SDS011;44527;47.460;19.016;2022-12-29T07:15:12;34.15;;;12.37;;
58756;SDS011;44527;47.460;19.016;2022-12-29T07:18:15;28.08;;;13.43;;
58756;SDS011;44527;47.460;19.016;2022-12-29T07:21:18;28.60;;;12.82;;
58756;SDS011;44527;47.460;19.016;2022-12-29T07:24:21;24.95;;;12.35;;
58756;SDS011;44527;47.460;19.016;2022-12-29T07:27:24;29.55;;;13.30;;
58756;SDS011;44527;47.460;19.016;2022-12-29T07:30:27;33.50;;;13.73;;
58756;SDS011;44527;47.460;19.016;2022-12-29T07:33:33;27.08;;;11.68;;
58756;SDS011;44527;47.460;19.016;2022-12-29T07:36:35;29.02;;;13.25;;
58756;SDS011;44527;47.460;19.016;2022-12-29T07:39:38;29.17;;;13.55;;
58756;SDS011;44527;47.460;19.016;2022-12-29T07:42:42;29.40;;;12.95;;
58756;SDS011;44527;47.460;19.016;2022-12-29T07:45:46;29.52;;;13.57;;
58756;SDS011;44527;47.460;19.016;2022-12-29T07:48:51;27.02;;;13.77;;
58756;SDS011;44527;47.460;19.016;2022-12-29T07:51:54;26.48;;;13.32;;
58756;SDS011;44527;47.460;19.016;2022-12-29T07:54:58;28.77;;;13.80;;
58756;SDS011;44527;47.460;19.016;2022-12-29T07:58:02;32.80;;;13.88;;
58756;SDS011;44527;47.460;19.016;2022-12-29T08:01:04;32.95;;;15.02;;
58756;SDS011;44527;47.460;19.016;2022-12-29T08:04:08;30.48;;;13.77;;
58756;SDS011;44527;47.460;19.016;2022-12-29T08:07:11;27.87;;;13.88;;
58756;SDS011;44527;47.460;19.016;2022-12-29T08:10:15;30.02;;;12.98;;
58756;SDS011;44527;47.460;19.016;2022-12-29T08:13:18;28.58;;;14.13;;
58756;SDS011;44527;47.460;19.016;2022-12-29T08:16:20;31.10;;;15.05;;
58756;SDS011;44527;47.460;19.016;2022-12-29T08:19:23;33.22;;;15.85;;
58756;SDS011;44527;47.460;19.016;2022-12-29T08:22:25;30.65;;;14.45;;
58756;SDS011;44527;47.460;19.016;2022-12-29T08:25:30;33.67;;;15.48;;
58756;SDS011;44527;47.460;19.016;2022-12-29T08:28:32;30.08;;;14.82;;
58756;SDS011;44527;47.460;19.016;2022-12-29T08:31:35;28.20;;;14.57;;
58756;SDS011;44527;47.460;19.016;2022-12-29T08:34:37;33.03;;;15.18;;
58756;SDS011;44527;47.460;19.016;2022-12-29T08:37:40;32.70;;;15.40;;
58756;SDS011;44527;47.460;19.016;2022-12-29T08:40:42;37.35;;;14.38;;
58756;SDS011;44527;47.460;19.016;2022-12-29T08:43:48;36.33;;;16.27;;
58756;SDS011;44527;47.460;19.016;2022-12-29T08:46:52;31.45;;;14.73;;
58756;SDS011;44527;47.460;19.016;2022-12-29T08:49:54;35.10;;;16.80;;
58756;SDS011;44527;47.460;19.016;2022-12-29T08:52:57;35.38;;;16.10;;
58756;SDS011;44527;47.460;19.016;2022-12-29T08:56:00;30.42;;;14.70;;
58756;SDS011;44527;47.460;19.016;2022-12-29T08:59:08;34.67;;;14.68;;
58756;SDS011;44527;47.460;19.016;2022-12-29T09:02:11;34.65;;;15.98;;
58756;SDS011;44527;47.460;19.016;2022-12-29T09:05:21;36.20;;;17.02;;
58756;SDS011;44527;47.460;19.016;2022-12-29T09:08:24;33.20;;;15.30;;
58756;SDS011;44527;47.460;19.016;2022-12-29T09:11:28;37.50;;;16.80;;
58756;SDS011;44527;47.460;19.016;2022-12-29T09:14:30;36.53;;;15.88;;
58756;SDS011;44527;47.460;19.016;2022-12-29T09:17:32;39.20;;;17.00;;
58756;SDS011;44527;47.460;19.016;2022-12-29T09:20:47;34.00;;;16.37;;
58756;SDS011;44527;47.460;19.016;2022-12-29T09:23:49;36.15;;;16.87;;
58756;SDS011;44527;47.460;19.016;2022-12-29T09:26:51;37.17;;;16.15;;
58756;SDS011;44527;47.460;19.016;2022-12-29T09:29:54;34.22;;;16.73;;
58756;SDS011;44527;47.460;19.016;2022-12-29T09:32:56;40.55;;;15.70;;
58756;SDS011;44527;47.460;19.016;2022-12-29T09:35:59;53.30;;;17.65;;
58756;SDS011;44527;47.460;19.016;2022-12-29T09:39:01;31.58;;;15.25;;
58756;SDS011;44527;47.460;19.016;2022-12-29T09:42:08;40.22;;;16.83;;
58756;SDS011;44527;47.460;19.016;2022-12-29T09:45:15;38.10;;;17.45;;
58756;SDS011;44527;47.460;19.016;2022-12-29T09:48:24;37.70;;;16.30;;
58756;SDS011;44527;47.460;19.016;2022-12-29T09:51:31;41.35;;;18.20;;
58756;SDS011;44527;47.460;19.016;2022-12-29T10:02:10;39.60;;;17.45;;
58756;SDS011;44527;47.460;19.016;2022-12-29T10:08:42;32.17;;;15.07;;
58756;SDS011;44527;47.460;19.016;2022-12-29T10:25:14;38.55;;;18.33;;
58756;SDS011;44527;47.460;19.016;2022-12-29T10:28:23;33.92;;;16.95;;
58756;SDS011;44527;47.460;19.016;2022-12-29T10:31:37;38.75;;;17.42;;
58756;SDS011;44527;47.460;19.016;2022-12-29T10:34:45;42.25;;;18.35;;
58756;SDS011;44527;47.460;19.016;2022-12-29T10:41:11;44.80;;;18.48;;
58756;SDS011;44527;47.460;19.016;2022-12-29T10:44:19;43.13;;;18.85;;
58756;SDS011;44527;47.460;19.016;2022-12-29T10:47:26;41.45;;;18.75;;
58756;SDS011;44527;47.460;19.016;2022-12-29T10:50:33;37.70;;;19.27;;
58756;SDS011;44527;47.460;19.016;2022-12-29T10:53:40;47.13;;;18.98;;
58756;SDS011;44527;47.460;19.016;2022-12-29T10:56:50;38.20;;;17.65;;
58756;SDS011;44527;47.460;19.016;2022-12-29T10:59:56;40.03;;;20.45;;
58756;SDS011;44527;47.460;19.016;2022-12-29T11:06:24;37.58;;;18.58;;
58756;SDS011;44527;47.460;19.016;2022-12-29T11:09:29;40.63;;;17.90;;
58756;SDS011;44527;47.460;19.016;2022-12-29T11:12:54;40.17;;;18.58;;
58756;SDS011;44527;47.460;19.016;2022-12-29T11:16:01;41.85;;;18.12;;
58756;SDS011;44527;47.460;19.016;2022-12-29T11:19:04;41.15;;;18.12;;
58756;SDS011;44527;47.460;19.016;2022-12-29T11:22:24;45.15;;;19.50;;
58756;SDS011;44527;47.460;19.016;2022-12-29T11:25:29;38.00;;;18.37;;
58756;SDS011;44527;47.460;19.016;2022-12-29T11:28:32;43.50;;;19.08;;
58756;SDS011;44527;47.460;19.016;2022-12-29T11:31:41;37.05;;;18.50;;
58756;SDS011;44527;47.460;19.016;2022-12-29T11:37:46;41.55;;;19.05;;
58756;SDS011;44527;47.460;19.016;2022-12-29T11:41:01;38.95;;;19.23;;
58756;SDS011;44527;47.460;19.016;2022-12-29T11:44:04;39.20;;;19.20;;
58756;SDS011;44527;47.460;19.016;2022-12-29T11:47:08;36.15;;;17.83;;
58756;SDS011;44527;47.460;19.016;2022-12-29T11:50:17;43.33;;;21.20;;
58756;SDS011;44527;47.460;19.016;2022-12-29T11:53:36;37.70;;;19.67;;
58756;SDS011;44527;47.460;19.016;2022-12-29T11:56:42;38.92;;;19.80;;
58756;SDS011;44527;47.460;19.016;2022-12-29T11:59:52;44.80;;;21.90;;
58756;SDS011;44527;47.460;19.016;2022-12-29T12:03:01;46.53;;;20.23;;
58756;SDS011;44527;47.460;19.016;2022-12-29T12:06:07;36.58;;;18.58;;
58756;SDS011;44527;47.460;19.016;2022-12-29T12:09:16;42.65;;;18.67;;
58756;SDS011;44527;47.460;19.016;2022-12-29T12:12:28;41.63;;;19.37;;
58756;SDS011;44527;47.460;19.016;2022-12-29T12:15:38;46.63;;;20.83;;
58756;SDS011;44527;47.460;19.016;2022-12-29T12:22:16;46.35;;;20.88;;
58756;SDS011;44527;47.460;19.016;2022-12-29T12:25:42;44.10;;;21.20;;
58756;SDS011;44527;47.460;19.016;2022-12-29T12:28:52;52.25;;;20.98;;
58756;SDS011;44527;47.460;19.016;2022-12-29T12:32:05;41.08;;;20.23;;
58756;SDS011;44527;47.460;19.016;2022-12-29T12:35:20;43.35;;;20.45;;
58756;SDS011;44527;47.460;19.016;2022-12-29T12:38:52;44.75;;;21.52;;
58756;SDS011;44527;47.460;19.016;2022-12-29T12:53:00;46.58;;;21.52;;
58756;SDS011;44527;47.460;19.016;2022-12-29T12:59:32;45.12;;;20.55;;
58756;SDS011;44527;47.460;19.016;2022-12-29T13:09:34;42.40;;;21.02;;
58756;SDS011;44527;47.460;19.016;2022-12-29T13:12:43;42.45;;;20.62;;
58756;SDS011;44527;47.460;19.016;2022-12-29T13:16:02;43.67;;;21.95;;
58756;SDS011;44527;47.460;19.016;2022-12-29T13:19:35;45.55;;;21.10;;
58756;SDS011;44527;47.460;19.016;2022-12-29T13:22:45;46.55;;;21.42;;
58756;SDS011;44527;47.460;19.016;2022-12-29T13:29:21;46.33;;;22.80;;
58756;SDS011;44527;47.460;19.016;2022-12-29T13:33:17;38.65;;;20.58;;
58756;SDS011;44527;47.460;19.016;2022-12-29T13:36:07;43.22;;;21.12;;
58756;SDS011;44527;47.460;19.016;2022-12-29T13:39:19;42.85;;;21.08;;
58756;SDS011;44527;47.460;19.016;2022-12-29T13:42:27;40.05;;;20.50;;
58756;SDS011;44527;47.460;19.016;2022-12-29T13:45:31;44.22;;;21.23;;
58756;SDS011;44527;47.460;19.016;2022-12-29T13:48:40;41.55;;;20.75;;
58756;SDS011;44527;47.460;19.016;2022-12-29T13:51:50;48.30;;;22.37;;
58756;SDS011;44527;47.460;19.016;2022-12-29T13:58:18;44.60;;;20.98;;
58756;SDS011;44527;47.460;19.016;2022-12-29T14:01:43;41.30;;;21.15;;
58756;SDS011;44527;47.460;19.016;2022-12-29T14:04:57;46.83;;;21.55;;
58756;SDS011;44527;47.460;19.016;2022-12-29T14:08:04;43.63;;;21.87;;
58756;SDS011;44527;47.460;19.016;2022-12-29T14:11:11;44.72;;;20.55;;
58756;SDS011;44527;47.460;19.016;2022-12-29T14:17:24;43.13;;;21.98;;
58756;SDS011;44527;47.460;19.016;2022-12-29T14:20:26;44.17;;;22.48;;
58756;SDS011;44527;47.460;19.016;2022-12-29T14:23:39;44.10;;;22.37;;
58756;SDS011;44527;47.460;19.016;2022-12-29T14:26:43;40.72;;;21.83;;
58756;SDS011;44527;47.460;19.016;2022-12-29T14:29:49;46.45;;;21.60;;
58756;SDS011;44527;47.460;19.016;2022-12-29T14:33:02;44.40;;;22.20;;
58756;SDS011;44527;47.460;19.016;2022-12-29T14:39:44;47.30;;;22.95;;
58756;SDS011;44527;47.460;19.016;2022-12-29T14:42:47;43.87;;;21.65;;
58756;SDS011;44527;47.460;19.016;2022-12-29T14:45:56;51.33;;;23.27;;
58756;SDS011;44527;47.460;19.016;2022-12-29T14:49:01;56.05;;;22.15;;
58756;SDS011;44527;47.460;19.016;2022-12-29T14:52:14;43.28;;;20.85;;
58756;SDS011;44527;47.460;19.016;2022-12-29T15:01:50;43.90;;;19.80;;
58756;SDS011;44527;47.460;19.016;2022-12-29T15:04:58;41.17;;;20.25;;
58756;SDS011;44527;47.460;19.016;2022-12-29T15:08:02;44.20;;;21.40;;
58756;SDS011;44527;47.460;19.016;2022-12-29T15:11:09;48.17;;;20.52;;
58756;SDS011;44527;47.460;19.016;2022-12-29T15:17:56;53.08;;;21.40;;
58756;SDS011;44527;47.460;19.016;2022-12-29T15:21:03;46.40;;;20.85;;
58756;SDS011;44527;47.460;19.016;2022-12-29T15:27:13;46.08;;;20.98;;
58756;SDS011;44527;47.460;19.016;2022-12-29T15:30:17;47.50;;;21.87;;
58756;SDS011;44527;47.460;19.016;2022-12-29T15:33:21;45.05;;;20.12;;
58756;SDS011;44527;47.460;19.016;2022-12-29T15:36:27;42.53;;;21.40;;
58756;SDS011;44527;47.460;19.016;2022-12-29T15:39:31;41.67;;;21.75;;
58756;SDS011;44527;47.460;19.016;2022-12-29T15:42:39;46.33;;;21.73;;
58756;SDS011;44527;47.460;19.016;2022-12-29T15:45:48;45.90;;;22.27;;
58756;SDS011;44527;47.460;19.016;2022-12-29T15:48:52;41.65;;;19.90;;
58756;SDS011;44527;47.460;19.016;2022-12-29T15:51:55;45.08;;;21.23;;
58756;SDS011;44527;47.460;19.016;2022-12-29T15:54:57;47.30;;;19.23;;
58756;SDS011;44527;47.460;19.016;2022-12-29T15:58:02;44.22;;;20.88;;
58756;SDS011;44527;47.460;19.016;2022-12-29T16:01:16;40.28;;;19.05;;
58756;SDS011;44527;47.460;19.016;2022-12-29T16:04:19;56.05;;;22.50;;
58756;SDS011;44527;47.460;19.016;2022-12-29T16:07:23;43.83;;;19.10;;
58756;SDS011;44527;47.460;19.016;2022-12-29T16:10:37;48.05;;;22.08;;
58756;SDS011;44527;47.460;19.016;2022-12-29T16:13:42;46.00;;;20.75;;
58756;SDS011;44527;47.460;19.016;2022-12-29T16:16:47;50.47;;;21.92;;
58756;SDS011;44527;47.460;19.016;2022-12-29T16:19:52;45.45;;;19.73;;
58756;SDS011;44527;47.460;19.016;2022-12-29T16:23:00;46.50;;;21.37;;
58756;SDS011;44527;47.460;19.016;2022-12-29T16:26:02;46.05;;;21.08;;
58756;SDS011;44527;47.460;19.016;2022-12-29T16:29:06;42.97;;;19.30;;
58756;SDS011;44527;47.460;19.016;2022-12-29T16:32:22;48.72;;;20.60;;
58756;SDS011;44527;47.460;19.016;2022-12-29T16:35:45;46.85;;;20.73;;
58756;SDS011;44527;47.460;19.016;2022-12-29T16:38:49;56.63;;;23.73;;
58756;SDS011;44527;47.460;19.016;2022-12-29T16:41:51;53.80;;;22.05;;
58756;SDS011;44527;47.460;19.016;2022-12-29T16:44:55;46.47;;;20.77;;
58756;SDS011;44527;47.460;19.016;2022-12-29T16:48:28;42.13;;;20.80;;
58756;SDS011;44527;47.460;19.016;2022-12-29T16:51:33;48.83;;;21.75;;
58756;SDS011;44527;47.460;19.016;2022-12-29T16:54:38;50.67;;;22.40;;
58756;SDS011;44527;47.460;19.016;2022-12-29T16:57:42;55.83;;;21.48;;
58756;SDS011;44527;47.460;19.016;2022-12-29T17:00:46;47.78;;;21.95;;
58756;SDS011;44527;47.460;19.016;2022-12-29T17:03:50;49.17;;;21.30;;
58756;SDS011;44527;47.460;19.016;2022-12-29T17:06:55;47.17;;;21.42;;
58756;SDS011;44527;47.460;19.016;2022-12-29T17:09:57;51.15;;;22.92;;
58756;SDS011;44527;47.460;19.016;2022-12-29T17:12:59;59.05;;;24.10;;
58756;SDS011;44527;47.460;19.016;2022-12-29T17:16:02;48.75;;;21.37;;
58756;SDS011;44527;47.460;19.016;2022-12-29T17:19:06;47.88;;;21.92;;
58756;SDS011;44527;47.460;19.016;2022-12-29T17:22:21;43.28;;;20.52;;
58756;SDS011;44527;47.460;19.016;2022-12-29T17:25:29;59.03;;;23.50;;
58756;SDS011;44527;47.460;19.016;2022-12-29T17:28:35;46.97;;;22.67;;
58756;SDS011;44527;47.460;19.016;2022-12-29T17:31:38;61.88;;;24.40;;
58756;SDS011;44527;47.460;19.016;2022-12-29T17:34:40;54.85;;;23.48;;
58756;SDS011;44527;47.460;19.016;2022-12-29T17:37:43;52.22;;;24.12;;
58756;SDS011;44527;47.460;19.016;2022-12-29T17:40:45;49.42;;;22.48;;
58756;SDS011;44527;47.460;19.016;2022-12-29T17:43:48;54.00;;;23.35;;
58756;SDS011;44527;47.460;19.016;2022-12-29T17:46:50;55.10;;;22.80;;
58756;SDS011;44527;47.460;19.016;2022-12-29T17:49:53;62.22;;;25.60;;
58756;SDS011;44527;47.460;19.016;2022-12-29T17:52:56;54.35;;;24.37;;
58756;SDS011;44527;47.460;19.016;2022-12-29T17:56:02;63.13;;;25.65;;
58756;SDS011;44527;47.460;19.016;2022-12-29T17:59:07;52.45;;;23.95;;
58756;SDS011;44527;47.460;19.016;2022-12-29T18:02:21;42.65;;;21.25;;
58756;SDS011;44527;47.460;19.016;2022-12-29T18:05:28;63.53;;;24.77;;
58756;SDS011;44527;47.460;19.016;2022-12-29T18:08:31;50.60;;;24.00;;
58756;SDS011;44527;47.460;19.016;2022-12-29T18:11:37;50.12;;;23.15;;
58756;SDS011;44527;47.460;19.016;2022-12-29T18:14:41;46.90;;;21.45;;
58756;SDS011;44527;47.460;19.016;2022-12-29T18:17:43;56.75;;;23.08;;
58756;SDS011;44527;47.460;19.016;2022-12-29T18:20:46;53.35;;;22.33;;
58756;SDS011;44527;47.460;19.016;2022-12-29T18:23:49;42.25;;;20.45;;
58756;SDS011;44527;47.460;19.016;2022-12-29T18:26:52;57.10;;;22.65;;
58756;SDS011;44527;47.460;19.016;2022-12-29T18:29:54;53.20;;;21.85;;
58756;SDS011;44527;47.460;19.016;2022-12-29T18:32:56;46.03;;;21.77;;
58756;SDS011;44527;47.460;19.016;2022-12-29T18:36:00;38.80;;;18.02;;
58756;SDS011;44527;47.460;19.016;2022-12-29T18:39:03;50.63;;;22.52;;
58756;SDS011;44527;47.460;19.016;2022-12-29T18:42:06;56.55;;;22.20;;
58756;SDS011;44527;47.460;19.016;2022-12-29T18:45:18;48.08;;;21.95;;
58756;SDS011;44527;47.460;19.016;2022-12-29T18:48:23;52.80;;;22.37;;
58756;SDS011;44527;47.460;19.016;2022-12-29T18:51:25;50.90;;;22.27;;
58756;SDS011;44527;47.460;19.016;2022-12-29T18:54:29;57.38;;;22.60;;
58756;SDS011;44527;47.460;19.016;2022-12-29T18:57:33;48.35;;;21.77;;
58756;SDS011;44527;47.460;19.016;2022-12-29T19:00:35;44.22;;;21.12;;
58756;SDS011;44527;47.460;19.016;2022-12-29T19:03:37;46.75;;;21.12;;
58756;SDS011;44527;47.460;19.016;2022-12-29T19:06:40;53.28;;;22.02;;
58756;SDS011;44527;47.460;19.016;2022-12-29T19:09:43;48.47;;;20.17;;
58756;SDS011;44527;47.460;19.016;2022-12-29T19:12:45;56.88;;;22.52;;
58756;SDS011;44527;47.460;19.016;2022-12-29T19:15:48;44.97;;;19.85;;
58756;SDS011;44527;47.460;19.016;2022-12-29T19:18:51;44.72;;;20.12;;
58756;SDS011;44527;47.460;19.016;2022-12-29T19:22:10;39.00;;;19.00;;
58756;SDS011;44527;47.460;19.016;2022-12-29T19:25:12;41.13;;;19.67;;
58756;SDS011;44527;47.460;19.016;2022-12-29T19:28:16;47.65;;;19.95;;
58756;SDS011;44527;47.460;19.016;2022-12-29T19:31:23;45.50;;;21.23;;
58756;SDS011;44527;47.460;19.016;2022-12-29T19:34:26;41.88;;;19.45;;
58756;SDS011;44527;47.460;19.016;2022-12-29T19:37:28;46.15;;;19.62;;
58756;SDS011;44527;47.460;19.016;2022-12-29T19:40:31;42.08;;;18.45;;
58756;SDS011;44527;47.460;19.016;2022-12-29T19:43:34;42.70;;;20.40;;
58756;SDS011;44527;47.460;19.016;2022-12-29T19:46:36;45.17;;;21.27;;
58756;SDS011;44527;47.460;19.016;2022-12-29T19:49:38;46.90;;;19.25;;
58756;SDS011;44527;47.460;19.016;2022-12-29T19:52:40;48.25;;;21.87;;
58756;SDS011;44527;47.460;19.016;2022-12-29T19:55:45;46.28;;;21.15;;
58756;SDS011;44527;47.460;19.016;2022-12-29T19:58:48;49.63;;;19.87;;
58756;SDS011;44527;47.460;19.016;2022-12-29T20:01:51;41.37;;;18.37;;